sensor_id;sensor_type;location;lat;lon;timestamp;P1;durP1;ratioP1;P2;durP2;ratioP2
3066;SDS011;1544;48.834;9.194;2022-09-14T00:00:02;1.70;;;1.60;;
3066;SDS011;1544;48.834;9.194;2022-09-14T00:02:42;2.80;;;1.93;;
3066;SDS011;1544;48.834;9.194;2022-09-14T00:05:20;2.70;;;2.10;;
3066;SDS011;1544;48.834;9.194;2022-09-14T00:07:55;2.30;;;2.20;;
3066;SDS011;1544;48.834;9.194;2022-09-14T00:10:30;1.93;;;1.83;;
3066;SDS011;1544;48.834;9.194;2022-09-14T00:13:05;1.83;;;1.73;;
3066;SDS011;1544;48.834;9.194;2022-09-14T00:15:40;2.07;;;1.97;;
3066;SDS011;1544;48.834;9.194;2022-09-14T00:18:19;2.40;;;2.20;;
3066;SDS011;1544;48.834;9.194;2022-09-14T00:20:58;2.07;;;1.97;;
3066;SDS011;1544;48.834;9.194;2022-09-14T00:23:39;2.13;;;2.03;;
3066;SDS011;1544;48.834;9.194;2022-09-14T00:26:16;1.90;;;1.80;;
3066;SDS011;1544;48.834;9.194;2022-09-14T00:28:55;1.87;;;1.77;;
3066;SDS011;1544;48.834;9.194;2022-09-14T00:31:32;2.37;;;2.10;;
3066;SDS011;1544;48.834;9.194;2022-09-14T00:34:10;2.77;;;2.20;;
3066;SDS011;1544;48.834;9.194;2022-09-14T00:36:48;1.97;;;1.87;;
3066;SDS011;1544;48.834;9.194;2022-09-14T00:39:25;2.40;;;1.87;;
3066;SDS011;1544;48.834;9.194;2022-09-14T00:42:02;2.33;;;2.20;;
3066;SDS011;1544;48.834;9.194;2022-09-14T00:47:13;2.63;;;2.43;;
3066;SDS011;1544;48.834;9.194;2022-09-14T00:49:50;3.57;;;2.13;;
3066;SDS011;1544;48.834;9.194;2022-09-14T00:52:26;2.17;;;2.03;;
3066;SDS011;1544;48.834;9.194;2022-09-14T00:55:07;2.00;;;1.90;;
3066;SDS011;1544;48.834;9.194;2022-09-14T00:57:47;2.13;;;2.03;;
3066;SDS011;1544;48.834;9.194;2022-09-14T01:00:25;2.43;;;2.33;;
3066;SDS011;1544;48.834;9.194;2022-09-14T01:03:03;2.23;;;2.13;;
3066;SDS011;1544;48.834;9.194;2022-09-14T01:11:27;2.47;;;2.27;;
3066;SDS011;1544;48.834;9.194;2022-09-14T01:23:34;7.17;;;4.10;;
3066;SDS011;1544;48.834;9.194;2022-09-14T01:32:20;3.30;;;3.03;;
3066;SDS011;1544;48.834;9.194;2022-09-14T01:38:07;3.43;;;3.13;;
3066;SDS011;1544;48.834;9.194;2022-09-14T01:41:06;2.93;;;2.20;;
3066;SDS011;1544;48.834;9.194;2022-09-14T01:43:50;6.03;;;3.33;;
3066;SDS011;1544;48.834;9.194;2022-09-14T01:46:38;3.37;;;3.07;;
3066;SDS011;1544;48.834;9.194;2022-09-14T01:49:23;2.87;;;2.10;;
3066;SDS011;1544;48.834;9.194;2022-09-14T01:52:26;3.03;;;2.43;;
3066;SDS011;1544;48.834;9.194;2022-09-14T01:55:14;8.13;;;2.80;;
3066;SDS011;1544;48.834;9.194;2022-09-14T01:57:59;5.27;;;2.70;;
3066;SDS011;1544;48.834;9.194;2022-09-14T02:00:50;2.60;;;2.20;;
3066;SDS011;1544;48.834;9.194;2022-09-14T02:03:30;5.53;;;2.37;;
3066;SDS011;1544;48.834;9.194;2022-09-14T02:06:21;3.17;;;2.70;;
3066;SDS011;1544;48.834;9.194;2022-09-14T02:09:13;3.40;;;2.70;;
3066;SDS011;1544;48.834;9.194;2022-09-14T02:11:53;3.90;;;3.60;;
3066;SDS011;1544;48.834;9.194;2022-09-14T02:14:33;3.57;;;3.27;;
3066;SDS011;1544;48.834;9.194;2022-09-14T02:17:08;5.27;;;3.87;;
3066;SDS011;1544;48.834;9.194;2022-09-14T02:19:45;4.20;;;3.90;;
3066;SDS011;1544;48.834;9.194;2022-09-14T02:22:29;5.27;;;4.80;;
3066;SDS011;1544;48.834;9.194;2022-09-14T02:25:05;4.70;;;4.30;;
3066;SDS011;1544;48.834;9.194;2022-09-14T02:27:40;4.37;;;3.97;;
3066;SDS011;1544;48.834;9.194;2022-09-14T02:30:19;4.40;;;4.00;;
3066;SDS011;1544;48.834;9.194;2022-09-14T02:33:30;8.50;;;4.57;;
3066;SDS011;1544;48.834;9.194;2022-09-14T02:36:06;5.17;;;4.60;;
3066;SDS011;1544;48.834;9.194;2022-09-14T02:39:44;5.87;;;5.07;;
3066;SDS011;1544;48.834;9.194;2022-09-14T02:46:15;5.70;;;5.20;;
3066;SDS011;1544;48.834;9.194;2022-09-14T02:52:18;5.13;;;4.63;;
3066;SDS011;1544;48.834;9.194;2022-09-14T02:55:09;4.53;;;4.23;;
3066;SDS011;1544;48.834;9.194;2022-09-14T03:00:47;5.03;;;4.63;;
3066;SDS011;1544;48.834;9.194;2022-09-14T03:03:24;5.70;;;5.20;;
3066;SDS011;1544;48.834;9.194;2022-09-14T03:05:59;4.70;;;4.37;;
3066;SDS011;1544;48.834;9.194;2022-09-14T03:08:34;4.87;;;4.47;;
3066;SDS011;1544;48.834;9.194;2022-09-14T03:11:10;5.30;;;4.90;;
3066;SDS011;1544;48.834;9.194;2022-09-14T03:13:45;4.23;;;3.93;;
3066;SDS011;1544;48.834;9.194;2022-09-14T03:16:20;5.00;;;4.50;;
3066;SDS011;1544;48.834;9.194;2022-09-14T03:18:55;6.17;;;5.17;;
3066;SDS011;1544;48.834;9.194;2022-09-14T03:21:30;6.20;;;4.70;;
3066;SDS011;1544;48.834;9.194;2022-09-14T03:24:06;4.83;;;4.33;;
3066;SDS011;1544;48.834;9.194;2022-09-14T03:26:41;5.23;;;4.77;;
3066;SDS011;1544;48.834;9.194;2022-09-14T03:29:16;5.80;;;5.30;;
3066;SDS011;1544;48.834;9.194;2022-09-14T03:31:51;5.07;;;4.67;;
3066;SDS011;1544;48.834;9.194;2022-09-14T03:34:26;4.70;;;4.40;;
3066;SDS011;1544;48.834;9.194;2022-09-14T03:37:01;5.23;;;4.73;;
3066;SDS011;1544;48.834;9.194;2022-09-14T03:39:36;4.67;;;4.40;;
3066;SDS011;1544;48.834;9.194;2022-09-14T03:42:11;5.63;;;5.20;;
3066;SDS011;1544;48.834;9.194;2022-09-14T03:44:46;5.30;;;4.90;;
3066;SDS011;1544;48.834;9.194;2022-09-14T03:47:21;5.57;;;5.07;;
3066;SDS011;1544;48.834;9.194;2022-09-14T03:49:56;5.87;;;5.47;;
3066;SDS011;1544;48.834;9.194;2022-09-14T03:52:32;6.23;;;5.63;;
3066;SDS011;1544;48.834;9.194;2022-09-14T03:55:08;5.23;;;4.93;;
3066;SDS011;1544;48.834;9.194;2022-09-14T03:57:43;6.17;;;5.67;;
3066;SDS011;1544;48.834;9.194;2022-09-14T04:00:18;6.07;;;5.53;;
3066;SDS011;1544;48.834;9.194;2022-09-14T04:02:53;7.00;;;6.40;;
3066;SDS011;1544;48.834;9.194;2022-09-14T04:05:28;5.93;;;5.33;;
3066;SDS011;1544;48.834;9.194;2022-09-14T04:08:03;6.87;;;6.17;;
3066;SDS011;1544;48.834;9.194;2022-09-14T04:10:38;5.97;;;5.57;;
3066;SDS011;1544;48.834;9.194;2022-09-14T04:13:14;5.80;;;5.20;;
3066;SDS011;1544;48.834;9.194;2022-09-14T04:15:56;6.03;;;5.53;;
3066;SDS011;1544;48.834;9.194;2022-09-14T04:18:32;6.53;;;5.87;;
3066;SDS011;1544;48.834;9.194;2022-09-14T04:21:09;5.37;;;4.97;;
3066;SDS011;1544;48.834;9.194;2022-09-14T04:23:57;8.23;;;5.33;;
3066;SDS011;1544;48.834;9.194;2022-09-14T04:26:48;8.67;;;7.07;;
3066;SDS011;1544;48.834;9.194;2022-09-14T04:29:23;7.80;;;6.80;;
3066;SDS011;1544;48.834;9.194;2022-09-14T04:31:58;7.63;;;6.67;;
3066;SDS011;1544;48.834;9.194;2022-09-14T04:34:34;12.33;;;8.07;;
3066;SDS011;1544;48.834;9.194;2022-09-14T04:37:09;8.57;;;7.73;;
3066;SDS011;1544;48.834;9.194;2022-09-14T04:39:44;8.10;;;7.30;;
3066;SDS011;1544;48.834;9.194;2022-09-14T04:42:19;7.60;;;6.33;;
3066;SDS011;1544;48.834;9.194;2022-09-14T04:44:53;8.83;;;8.03;;
3066;SDS011;1544;48.834;9.194;2022-09-14T04:47:28;11.20;;;8.07;;
3066;SDS011;1544;48.834;9.194;2022-09-14T04:50:04;7.80;;;7.07;;
3066;SDS011;1544;48.834;9.194;2022-09-14T04:52:39;8.13;;;7.40;;
3066;SDS011;1544;48.834;9.194;2022-09-14T04:55:14;10.27;;;8.00;;
3066;SDS011;1544;48.834;9.194;2022-09-14T04:57:49;7.60;;;6.50;;
3066;SDS011;1544;48.834;9.194;2022-09-14T05:00:24;9.47;;;8.57;;
3066;SDS011;1544;48.834;9.194;2022-09-14T05:02:59;10.00;;;8.73;;
3066;SDS011;1544;48.834;9.194;2022-09-14T05:05:35;9.47;;;8.37;;
3066;SDS011;1544;48.834;9.194;2022-09-14T05:08:16;10.10;;;9.07;;
3066;SDS011;1544;48.834;9.194;2022-09-14T05:10:53;8.80;;;8.00;;
3066;SDS011;1544;48.834;9.194;2022-09-14T05:13:30;7.90;;;7.30;;
3066;SDS011;1544;48.834;9.194;2022-09-14T05:16:08;9.27;;;8.47;;
3066;SDS011;1544;48.834;9.194;2022-09-14T05:18:49;9.47;;;8.57;;
3066;SDS011;1544;48.834;9.194;2022-09-14T05:21:25;8.93;;;8.10;;
3066;SDS011;1544;48.834;9.194;2022-09-14T05:24:01;8.17;;;7.50;;
3066;SDS011;1544;48.834;9.194;2022-09-14T05:26:41;9.10;;;8.27;;
3066;SDS011;1544;48.834;9.194;2022-09-14T05:29:18;8.83;;;7.97;;
3066;SDS011;1544;48.834;9.194;2022-09-14T05:31:53;8.33;;;7.63;;
3066;SDS011;1544;48.834;9.194;2022-09-14T05:34:28;7.70;;;7.07;;
3066;SDS011;1544;48.834;9.194;2022-09-14T05:37:03;6.90;;;6.40;;
3066;SDS011;1544;48.834;9.194;2022-09-14T05:39:38;7.90;;;7.20;;
3066;SDS011;1544;48.834;9.194;2022-09-14T05:42:13;7.70;;;7.13;;
3066;SDS011;1544;48.834;9.194;2022-09-14T05:44:48;6.60;;;6.10;;
3066;SDS011;1544;48.834;9.194;2022-09-14T05:47:23;6.40;;;5.90;;
3066;SDS011;1544;48.834;9.194;2022-09-14T05:49:58;7.37;;;6.87;;
3066;SDS011;1544;48.834;9.194;2022-09-14T05:52:33;7.57;;;7.07;;
3066;SDS011;1544;48.834;9.194;2022-09-14T05:55:08;7.00;;;6.60;;
3066;SDS011;1544;48.834;9.194;2022-09-14T05:57:47;8.17;;;7.57;;
3066;SDS011;1544;48.834;9.194;2022-09-14T06:00:23;5.77;;;5.33;;
3066;SDS011;1544;48.834;9.194;2022-09-14T06:02:58;6.90;;;6.30;;
3066;SDS011;1544;48.834;9.194;2022-09-14T06:05:33;6.07;;;5.57;;
3066;SDS011;1544;48.834;9.194;2022-09-14T06:08:09;6.00;;;5.60;;
3066;SDS011;1544;48.834;9.194;2022-09-14T06:10:43;5.40;;;5.07;;
3066;SDS011;1544;48.834;9.194;2022-09-14T06:13:18;5.00;;;4.70;;
3066;SDS011;1544;48.834;9.194;2022-09-14T06:15:59;6.67;;;6.17;;
3066;SDS011;1544;48.834;9.194;2022-09-14T06:18:40;6.37;;;5.87;;
3066;SDS011;1544;48.834;9.194;2022-09-14T06:21:18;5.43;;;5.10;;
3066;SDS011;1544;48.834;9.194;2022-09-14T06:23:53;5.07;;;4.77;;
3066;SDS011;1544;48.834;9.194;2022-09-14T06:26:29;5.23;;;4.90;;
3066;SDS011;1544;48.834;9.194;2022-09-14T06:29:04;4.73;;;4.53;;
3066;SDS011;1544;48.834;9.194;2022-09-14T06:31:40;4.70;;;4.37;;
3066;SDS011;1544;48.834;9.194;2022-09-14T06:34:15;4.77;;;4.50;;
3066;SDS011;1544;48.834;9.194;2022-09-14T06:36:53;4.50;;;4.20;;
3066;SDS011;1544;48.834;9.194;2022-09-14T06:39:28;4.37;;;4.00;;
3066;SDS011;1544;48.834;9.194;2022-09-14T06:42:03;4.50;;;4.20;;
3066;SDS011;1544;48.834;9.194;2022-09-14T06:44:38;4.63;;;4.33;;
3066;SDS011;1544;48.834;9.194;2022-09-14T06:47:13;6.10;;;4.60;;
3066;SDS011;1544;48.834;9.194;2022-09-14T06:49:48;4.93;;;4.53;;
3066;SDS011;1544;48.834;9.194;2022-09-14T06:52:24;4.40;;;4.20;;
3066;SDS011;1544;48.834;9.194;2022-09-14T06:55:02;3.70;;;3.50;;
3066;SDS011;1544;48.834;9.194;2022-09-14T06:57:37;4.20;;;4.00;;
3066;SDS011;1544;48.834;9.194;2022-09-14T07:00:16;3.77;;;3.47;;
3066;SDS011;1544;48.834;9.194;2022-09-14T07:02:54;3.83;;;3.50;;
3066;SDS011;1544;48.834;9.194;2022-09-14T07:05:29;3.90;;;3.67;;
3066;SDS011;1544;48.834;9.194;2022-09-14T07:08:04;3.80;;;3.50;;
3066;SDS011;1544;48.834;9.194;2022-09-14T07:10:53;4.13;;;3.93;;
3066;SDS011;1544;48.834;9.194;2022-09-14T07:13:30;4.30;;;3.90;;
3066;SDS011;1544;48.834;9.194;2022-09-14T07:16:06;3.70;;;3.43;;
3066;SDS011;1544;48.834;9.194;2022-09-14T07:18:41;3.40;;;3.20;;
3066;SDS011;1544;48.834;9.194;2022-09-14T07:21:17;4.97;;;3.90;;
3066;SDS011;1544;48.834;9.194;2022-09-14T07:23:54;6.00;;;3.37;;
3066;SDS011;1544;48.834;9.194;2022-09-14T07:26:30;3.70;;;3.50;;
3066;SDS011;1544;48.834;9.194;2022-09-14T07:29:13;3.60;;;3.40;;
3066;SDS011;1544;48.834;9.194;2022-09-14T07:31:52;3.27;;;3.07;;
3066;SDS011;1544;48.834;9.194;2022-09-14T07:34:29;3.80;;;3.60;;
3066;SDS011;1544;48.834;9.194;2022-09-14T07:37:05;3.10;;;2.90;;
3066;SDS011;1544;48.834;9.194;2022-09-14T07:39:40;4.20;;;3.70;;
3066;SDS011;1544;48.834;9.194;2022-09-14T07:42:15;3.93;;;3.63;;
3066;SDS011;1544;48.834;9.194;2022-09-14T07:44:50;3.37;;;3.13;;
3066;SDS011;1544;48.834;9.194;2022-09-14T07:47:25;3.53;;;3.00;;
3066;SDS011;1544;48.834;9.194;2022-09-14T07:50:03;3.30;;;2.70;;
3066;SDS011;1544;48.834;9.194;2022-09-14T07:52:38;3.10;;;2.90;;
3066;SDS011;1544;48.834;9.194;2022-09-14T07:55:13;3.03;;;2.73;;
3066;SDS011;1544;48.834;9.194;2022-09-14T07:57:48;3.77;;;3.33;;
3066;SDS011;1544;48.834;9.194;2022-09-14T08:00:30;3.13;;;2.83;;
3066;SDS011;1544;48.834;9.194;2022-09-14T08:03:05;3.20;;;2.37;;
3066;SDS011;1544;48.834;9.194;2022-09-14T08:05:39;2.93;;;2.73;;
3066;SDS011;1544;48.834;9.194;2022-09-14T08:08:15;2.40;;;2.30;;
3066;SDS011;1544;48.834;9.194;2022-09-14T08:10:50;2.90;;;2.67;;
3066;SDS011;1544;48.834;9.194;2022-09-14T08:13:25;2.30;;;2.20;;
3066;SDS011;1544;48.834;9.194;2022-09-14T08:16:00;2.80;;;1.90;;
3066;SDS011;1544;48.834;9.194;2022-09-14T08:18:36;2.07;;;1.77;;
3066;SDS011;1544;48.834;9.194;2022-09-14T08:21:12;2.90;;;2.20;;
3066;SDS011;1544;48.834;9.194;2022-09-14T08:23:50;3.30;;;2.30;;
3066;SDS011;1544;48.834;9.194;2022-09-14T08:26:25;2.47;;;2.00;;
3066;SDS011;1544;48.834;9.194;2022-09-14T08:29:01;2.50;;;2.20;;
3066;SDS011;1544;48.834;9.194;2022-09-14T08:31:38;2.60;;;2.50;;
3066;SDS011;1544;48.834;9.194;2022-09-14T08:34:14;4.07;;;2.70;;
3066;SDS011;1544;48.834;9.194;2022-09-14T08:36:50;2.10;;;1.87;;
3066;SDS011;1544;48.834;9.194;2022-09-14T08:39:25;2.60;;;2.00;;
3066;SDS011;1544;48.834;9.194;2022-09-14T08:42:00;2.73;;;2.40;;
3066;SDS011;1544;48.834;9.194;2022-09-14T08:44:42;2.10;;;2.00;;
3066;SDS011;1544;48.834;9.194;2022-09-14T08:50:04;2.13;;;2.00;;
3066;SDS011;1544;48.834;9.194;2022-09-14T08:52:44;4.33;;;3.00;;
3066;SDS011;1544;48.834;9.194;2022-09-14T08:55:44;3.00;;;2.57;;
3066;SDS011;1544;48.834;9.194;2022-09-14T09:04:35;2.53;;;2.33;;
3066;SDS011;1544;48.834;9.194;2022-09-14T09:10:12;2.50;;;2.30;;
3066;SDS011;1544;48.834;9.194;2022-09-14T09:12:49;3.63;;;2.13;;
3066;SDS011;1544;48.834;9.194;2022-09-14T09:15:31;4.20;;;2.60;;
3066;SDS011;1544;48.834;9.194;2022-09-14T09:21:12;2.43;;;2.00;;
3066;SDS011;1544;48.834;9.194;2022-09-14T09:23:57;2.43;;;2.23;;
3066;SDS011;1544;48.834;9.194;2022-09-14T09:26:56;1.97;;;1.70;;
3066;SDS011;1544;48.834;9.194;2022-09-14T09:29:31;1.90;;;1.80;;
3066;SDS011;1544;48.834;9.194;2022-09-14T09:32:16;2.10;;;2.00;;
3066;SDS011;1544;48.834;9.194;2022-09-14T09:35:00;1.93;;;1.83;;
3066;SDS011;1544;48.834;9.194;2022-09-14T09:37:52;3.17;;;1.67;;
3066;SDS011;1544;48.834;9.194;2022-09-14T09:40:29;3.60;;;1.70;;
3066;SDS011;1544;48.834;9.194;2022-09-14T09:43:13;1.90;;;1.70;;
3066;SDS011;1544;48.834;9.194;2022-09-14T09:46:11;3.53;;;1.73;;
3066;SDS011;1544;48.834;9.194;2022-09-14T09:48:48;4.73;;;1.97;;
3066;SDS011;1544;48.834;9.194;2022-09-14T09:54:04;1.57;;;1.43;;
3066;SDS011;1544;48.834;9.194;2022-09-14T09:59:39;1.70;;;1.33;;
3066;SDS011;1544;48.834;9.194;2022-09-14T10:13:24;2.77;;;1.50;;
3066;SDS011;1544;48.834;9.194;2022-09-14T10:16:15;3.43;;;1.60;;
3066;SDS011;1544;48.834;9.194;2022-09-14T10:18:52;2.70;;;1.70;;
3066;SDS011;1544;48.834;9.194;2022-09-14T10:21:27;2.10;;;1.90;;
3066;SDS011;1544;48.834;9.194;2022-09-14T10:26:49;2.30;;;1.63;;
3066;SDS011;1544;48.834;9.194;2022-09-14T10:32:16;1.67;;;1.57;;
3066;SDS011;1544;48.834;9.194;2022-09-14T10:34:57;2.10;;;1.80;;
3066;SDS011;1544;48.834;9.194;2022-09-14T10:37:44;1.60;;;1.50;;
3066;SDS011;1544;48.834;9.194;2022-09-14T10:40:55;2.27;;;1.40;;
3066;SDS011;1544;48.834;9.194;2022-09-14T10:43:56;1.60;;;1.40;;
3066;SDS011;1544;48.834;9.194;2022-09-14T10:52:50;3.00;;;1.70;;
3066;SDS011;1544;48.834;9.194;2022-09-14T11:07:58;1.77;;;1.60;;
3066;SDS011;1544;48.834;9.194;2022-09-14T11:13:47;1.53;;;1.43;;
3066;SDS011;1544;48.834;9.194;2022-09-14T11:20:13;1.60;;;1.50;;
3066;SDS011;1544;48.834;9.194;2022-09-14T11:26:33;2.17;;;1.50;;
3066;SDS011;1544;48.834;9.194;2022-09-14T11:32:03;3.57;;;1.50;;
3066;SDS011;1544;48.834;9.194;2022-09-14T11:37:53;1.40;;;1.30;;
3066;SDS011;1544;48.834;9.194;2022-09-14T11:44:14;1.93;;;1.30;;
3066;SDS011;1544;48.834;9.194;2022-09-14T11:47:16;1.50;;;1.40;;
3066;SDS011;1544;48.834;9.194;2022-09-14T11:49:54;3.17;;;1.40;;
3066;SDS011;1544;48.834;9.194;2022-09-14T11:52:34;1.40;;;1.30;;
3066;SDS011;1544;48.834;9.194;2022-09-14T11:55:16;1.50;;;1.30;;
3066;SDS011;1544;48.834;9.194;2022-09-14T11:57:51;2.63;;;1.43;;
3066;SDS011;1544;48.834;9.194;2022-09-14T12:03:17;1.40;;;1.30;;
3066;SDS011;1544;48.834;9.194;2022-09-14T12:05:55;2.20;;;1.30;;
3066;SDS011;1544;48.834;9.194;2022-09-14T12:11:56;2.50;;;1.50;;
3066;SDS011;1544;48.834;9.194;2022-09-14T12:14:35;1.57;;;1.47;;
3066;SDS011;1544;48.834;9.194;2022-09-14T12:17:20;1.70;;;1.60;;
3066;SDS011;1544;48.834;9.194;2022-09-14T12:20:35;1.70;;;1.60;;
3066;SDS011;1544;48.834;9.194;2022-09-14T12:28:45;1.30;;;1.20;;
3066;SDS011;1544;48.834;9.194;2022-09-14T12:34:21;2.50;;;1.33;;
3066;SDS011;1544;48.834;9.194;2022-09-14T12:36:59;1.70;;;1.60;;
3066;SDS011;1544;48.834;9.194;2022-09-14T12:43:36;3.23;;;1.60;;
3066;SDS011;1544;48.834;9.194;2022-09-14T12:48:58;2.10;;;1.30;;
3066;SDS011;1544;48.834;9.194;2022-09-14T12:51:40;1.77;;;1.60;;
3066;SDS011;1544;48.834;9.194;2022-09-14T12:54:26;1.47;;;1.37;;
3066;SDS011;1544;48.834;9.194;2022-09-14T12:57:48;3.73;;;2.00;;
3066;SDS011;1544;48.834;9.194;2022-09-14T13:00:27;2.50;;;1.90;;
3066;SDS011;1544;48.834;9.194;2022-09-14T13:03:16;5.80;;;2.47;;
3066;SDS011;1544;48.834;9.194;2022-09-14T13:06:17;2.60;;;2.20;;
3066;SDS011;1544;48.834;9.194;2022-09-14T13:08:56;5.30;;;2.53;;
3066;SDS011;1544;48.834;9.194;2022-09-14T13:11:36;2.80;;;2.60;;
3066;SDS011;1544;48.834;9.194;2022-09-14T13:14:15;2.47;;;1.70;;
3066;SDS011;1544;48.834;9.194;2022-09-14T13:16:52;4.07;;;2.20;;
3066;SDS011;1544;48.834;9.194;2022-09-14T13:19:29;2.70;;;1.97;;
3066;SDS011;1544;48.834;9.194;2022-09-14T13:22:17;2.10;;;1.90;;
3066;SDS011;1544;48.834;9.194;2022-09-14T13:24:55;2.30;;;1.90;;
3066;SDS011;1544;48.834;9.194;2022-09-14T13:27:32;1.70;;;1.60;;
3066;SDS011;1544;48.834;9.194;2022-09-14T13:30:22;3.17;;;2.00;;
3066;SDS011;1544;48.834;9.194;2022-09-14T13:32:59;2.40;;;1.77;;
3066;SDS011;1544;48.834;9.194;2022-09-14T13:35:42;2.10;;;1.63;;
3066;SDS011;1544;48.834;9.194;2022-09-14T13:38:24;3.00;;;1.90;;
3066;SDS011;1544;48.834;9.194;2022-09-14T13:41:05;2.50;;;1.80;;
3066;SDS011;1544;48.834;9.194;2022-09-14T13:43:44;3.83;;;1.70;;
3066;SDS011;1544;48.834;9.194;2022-09-14T13:46:23;3.00;;;1.60;;
3066;SDS011;1544;48.834;9.194;2022-09-14T13:49:00;2.80;;;1.90;;
3066;SDS011;1544;48.834;9.194;2022-09-14T13:51:35;4.20;;;2.13;;
3066;SDS011;1544;48.834;9.194;2022-09-14T13:57:10;1.40;;;1.30;;
3066;SDS011;1544;48.834;9.194;2022-09-14T14:02:51;1.77;;;1.37;;
3066;SDS011;1544;48.834;9.194;2022-09-14T14:05:33;1.70;;;1.60;;
3066;SDS011;1544;48.834;9.194;2022-09-14T14:08:33;3.23;;;1.63;;
3066;SDS011;1544;48.834;9.194;2022-09-14T14:11:12;2.20;;;1.50;;
3066;SDS011;1544;48.834;9.194;2022-09-14T14:13:47;1.77;;;1.47;;
3066;SDS011;1544;48.834;9.194;2022-09-14T14:16:28;1.57;;;1.33;;
3066;SDS011;1544;48.834;9.194;2022-09-14T14:19:03;1.70;;;1.40;;
3066;SDS011;1544;48.834;9.194;2022-09-14T14:21:38;1.70;;;1.60;;
3066;SDS011;1544;48.834;9.194;2022-09-14T14:24:23;2.23;;;1.53;;
3066;SDS011;1544;48.834;9.194;2022-09-14T14:27:01;3.30;;;1.30;;
3066;SDS011;1544;48.834;9.194;2022-09-14T14:29:36;1.60;;;1.33;;
3066;SDS011;1544;48.834;9.194;2022-09-14T14:32:11;2.07;;;1.60;;
3066;SDS011;1544;48.834;9.194;2022-09-14T14:34:46;2.93;;;1.30;;
3066;SDS011;1544;48.834;9.194;2022-09-14T14:37:22;2.50;;;1.20;;
3066;SDS011;1544;48.834;9.194;2022-09-14T14:39:57;1.80;;;1.10;;
3066;SDS011;1544;48.834;9.194;2022-09-14T14:42:32;1.40;;;1.30;;
3066;SDS011;1544;48.834;9.194;2022-09-14T14:47:52;1.50;;;1.10;;
3066;SDS011;1544;48.834;9.194;2022-09-14T14:50:30;1.10;;;1.10;;
3066;SDS011;1544;48.834;9.194;2022-09-14T14:53:07;1.73;;;1.13;;
3066;SDS011;1544;48.834;9.194;2022-09-14T14:55:42;1.37;;;1.03;;
3066;SDS011;1544;48.834;9.194;2022-09-14T14:58:18;1.27;;;1.10;;
3066;SDS011;1544;48.834;9.194;2022-09-14T15:00:55;1.20;;;1.10;;
3066;SDS011;1544;48.834;9.194;2022-09-14T15:03:30;1.30;;;1.00;;
3066;SDS011;1544;48.834;9.194;2022-09-14T15:06:19;1.30;;;1.20;;
3066;SDS011;1544;48.834;9.194;2022-09-14T15:08:57;1.20;;;1.10;;
3066;SDS011;1544;48.834;9.194;2022-09-14T15:11:32;1.23;;;1.10;;
3066;SDS011;1544;48.834;9.194;2022-09-14T15:14:13;1.20;;;1.10;;
3066;SDS011;1544;48.834;9.194;2022-09-14T15:16:50;1.30;;;1.20;;
3066;SDS011;1544;48.834;9.194;2022-09-14T15:19:28;2.03;;;1.10;;
3066;SDS011;1544;48.834;9.194;2022-09-14T15:22:03;1.57;;;1.30;;
3066;SDS011;1544;48.834;9.194;2022-09-14T15:24:38;1.00;;;1.00;;
3066;SDS011;1544;48.834;9.194;2022-09-14T15:27:13;1.10;;;1.10;;
3066;SDS011;1544;48.834;9.194;2022-09-14T15:29:48;1.43;;;0.90;;
3066;SDS011;1544;48.834;9.194;2022-09-14T15:32:23;2.60;;;1.60;;
3066;SDS011;1544;48.834;9.194;2022-09-14T15:34:58;1.10;;;1.00;;
3066;SDS011;1544;48.834;9.194;2022-09-14T15:37:33;1.10;;;1.00;;
3066;SDS011;1544;48.834;9.194;2022-09-14T15:40:09;1.00;;;1.00;;
3066;SDS011;1544;48.834;9.194;2022-09-14T15:42:45;2.70;;;1.00;;
3066;SDS011;1544;48.834;9.194;2022-09-14T15:45:20;0.80;;;0.80;;
3066;SDS011;1544;48.834;9.194;2022-09-14T15:47:55;1.13;;;0.77;;
3066;SDS011;1544;48.834;9.194;2022-09-14T15:50:30;0.70;;;0.70;;
3066;SDS011;1544;48.834;9.194;2022-09-14T15:53:05;1.20;;;1.10;;
3066;SDS011;1544;48.834;9.194;2022-09-14T15:55:40;1.00;;;1.00;;
3066;SDS011;1544;48.834;9.194;2022-09-14T15:58:17;1.90;;;1.13;;
3066;SDS011;1544;48.834;9.194;2022-09-14T16:00:52;0.80;;;0.80;;
3066;SDS011;1544;48.834;9.194;2022-09-14T16:03:27;0.57;;;0.57;;
3066;SDS011;1544;48.834;9.194;2022-09-14T16:06:02;0.70;;;0.70;;
3066;SDS011;1544;48.834;9.194;2022-09-14T16:08:38;1.03;;;0.70;;
3066;SDS011;1544;48.834;9.194;2022-09-14T16:11:14;1.13;;;0.90;;
3066;SDS011;1544;48.834;9.194;2022-09-14T16:13:49;0.60;;;0.60;;
3066;SDS011;1544;48.834;9.194;2022-09-14T16:16:25;2.20;;;0.80;;
3066;SDS011;1544;48.834;9.194;2022-09-14T16:19:03;0.63;;;0.60;;
3066;SDS011;1544;48.834;9.194;2022-09-14T16:21:40;1.27;;;0.90;;
3066;SDS011;1544;48.834;9.194;2022-09-14T16:24:17;0.77;;;0.77;;
3066;SDS011;1544;48.834;9.194;2022-09-14T16:26:53;0.87;;;0.70;;
3066;SDS011;1544;48.834;9.194;2022-09-14T16:29:28;0.83;;;0.80;;
3066;SDS011;1544;48.834;9.194;2022-09-14T16:32:03;0.87;;;0.87;;
3066;SDS011;1544;48.834;9.194;2022-09-14T16:34:38;1.50;;;0.93;;
3066;SDS011;1544;48.834;9.194;2022-09-14T16:37:13;1.10;;;1.00;;
3066;SDS011;1544;48.834;9.194;2022-09-14T16:39:49;1.03;;;0.93;;
3066;SDS011;1544;48.834;9.194;2022-09-14T16:42:24;1.43;;;0.90;;
3066;SDS011;1544;48.834;9.194;2022-09-14T16:45:00;1.07;;;0.80;;
3066;SDS011;1544;48.834;9.194;2022-09-14T16:47:35;0.70;;;0.70;;
3066;SDS011;1544;48.834;9.194;2022-09-14T16:50:10;1.80;;;1.20;;
3066;SDS011;1544;48.834;9.194;2022-09-14T16:52:45;1.70;;;1.30;;
3066;SDS011;1544;48.834;9.194;2022-09-14T16:55:20;1.60;;;1.30;;
3066;SDS011;1544;48.834;9.194;2022-09-14T16:57:58;1.27;;;1.10;;
3066;SDS011;1544;48.834;9.194;2022-09-14T17:00:33;1.00;;;1.00;;
3066;SDS011;1544;48.834;9.194;2022-09-14T17:03:08;1.03;;;1.00;;
3066;SDS011;1544;48.834;9.194;2022-09-14T17:05:43;0.93;;;0.90;;
3066;SDS011;1544;48.834;9.194;2022-09-14T17:08:18;1.00;;;1.00;;
3066;SDS011;1544;48.834;9.194;2022-09-14T17:10:53;0.80;;;0.80;;
3066;SDS011;1544;48.834;9.194;2022-09-14T17:13:30;1.20;;;1.10;;
3066;SDS011;1544;48.834;9.194;2022-09-14T17:16:09;1.20;;;0.90;;
3066;SDS011;1544;48.834;9.194;2022-09-14T17:18:47;1.27;;;0.83;;
3066;SDS011;1544;48.834;9.194;2022-09-14T17:21:26;0.93;;;0.93;;
3066;SDS011;1544;48.834;9.194;2022-09-14T17:24:04;1.87;;;1.20;;
3066;SDS011;1544;48.834;9.194;2022-09-14T17:26:40;1.00;;;1.00;;
3066;SDS011;1544;48.834;9.194;2022-09-14T17:29:16;1.00;;;1.00;;
3066;SDS011;1544;48.834;9.194;2022-09-14T17:31:51;1.30;;;1.20;;
3066;SDS011;1544;48.834;9.194;2022-09-14T17:34:28;1.40;;;1.30;;
3066;SDS011;1544;48.834;9.194;2022-09-14T17:37:03;3.03;;;1.70;;
3066;SDS011;1544;48.834;9.194;2022-09-14T17:39:39;1.00;;;1.00;;
3066;SDS011;1544;48.834;9.194;2022-09-14T17:42:14;2.10;;;1.57;;
3066;SDS011;1544;48.834;9.194;2022-09-14T17:44:49;1.67;;;1.37;;
3066;SDS011;1544;48.834;9.194;2022-09-14T17:47:24;1.63;;;1.20;;
3066;SDS011;1544;48.834;9.194;2022-09-14T17:49:59;1.67;;;1.50;;
3066;SDS011;1544;48.834;9.194;2022-09-14T17:52:34;3.03;;;1.40;;
3066;SDS011;1544;48.834;9.194;2022-09-14T17:55:09;3.33;;;1.80;;
3066;SDS011;1544;48.834;9.194;2022-09-14T17:57:45;1.13;;;1.10;;
3066;SDS011;1544;48.834;9.194;2022-09-14T18:00:20;1.13;;;1.07;;
3066;SDS011;1544;48.834;9.194;2022-09-14T18:02:55;1.40;;;1.30;;
3066;SDS011;1544;48.834;9.194;2022-09-14T18:05:30;2.30;;;1.30;;
3066;SDS011;1544;48.834;9.194;2022-09-14T18:08:06;1.30;;;1.20;;
3066;SDS011;1544;48.834;9.194;2022-09-14T18:10:41;1.50;;;1.20;;
3066;SDS011;1544;48.834;9.194;2022-09-14T18:13:16;1.97;;;1.30;;
3066;SDS011;1544;48.834;9.194;2022-09-14T18:15:54;1.40;;;1.30;;
3066;SDS011;1544;48.834;9.194;2022-09-14T18:18:30;2.20;;;1.20;;
3066;SDS011;1544;48.834;9.194;2022-09-14T18:21:05;1.87;;;1.40;;
3066;SDS011;1544;48.834;9.194;2022-09-14T18:23:40;1.60;;;1.50;;
3066;SDS011;1544;48.834;9.194;2022-09-14T18:26:16;1.43;;;1.33;;
3066;SDS011;1544;48.834;9.194;2022-09-14T18:28:52;1.73;;;1.30;;
3066;SDS011;1544;48.834;9.194;2022-09-14T18:31:29;2.07;;;1.60;;
3066;SDS011;1544;48.834;9.194;2022-09-14T18:34:04;1.53;;;1.43;;
3066;SDS011;1544;48.834;9.194;2022-09-14T18:36:41;1.50;;;1.40;;
3066;SDS011;1544;48.834;9.194;2022-09-14T18:39:16;1.37;;;1.03;;
3066;SDS011;1544;48.834;9.194;2022-09-14T18:41:52;2.10;;;1.50;;
3066;SDS011;1544;48.834;9.194;2022-09-14T18:44:27;1.40;;;1.30;;
3066;SDS011;1544;48.834;9.194;2022-09-14T18:47:02;2.67;;;1.20;;